Time;durP1;ratioP1;P1;durP2;ratioP2;P2;SDS_P1;SDS_P2;PMS_P1;PMS_P2;Temp;Humidity;BMP_temperature;BMP_pressure;BME280_temperature;BME280_humidity;BME280_pressure;Samples;Min_cycle;Max_cycle;Signal;HPM_P1;HPM_P2
2022/08/01 00:01:06;;;;;;;31.12;4.90;;;;;;;16.42;100.00;98606.44;4371956;32;20460;-75
2022/08/01 00:03:33;;;;;;;30.25;4.82;;;;;;;16.24;100.00;98572.78;4369174;32;20208;-75
2022/08/01 00:05:59;;;;;;;8.75;3.70;;;;;;;16.34;100.00;98569.91;4371411;32;20042;-75
2022/08/01 00:08:25;;;;;;;43.35;4.68;;;;;;;16.31;100.00;98567.78;4341014;33;20052;-74
2022/08/01 00:10:52;;;;;;;17.33;4.72;;;;;;;16.48;100.00;98599.81;4340919;33;20025;-74
2022/08/01 00:13:18;;;;;;;20.12;3.58;;;;;;;16.34;100.00;98588.94;4312992;33;20033;-75
2022/08/01 00:15:44;;;;;;;7.82;3.83;;;;;;;16.07;100.00;98567.94;4325700;33;20075;-75
2022/08/01 00:18:11;;;;;;;5.00;3.83;;;;;;;15.84;100.00;98521.56;4326253;33;20107;-74
2022/08/01 00:20:37;;;;;;;4.30;3.60;;;;;;;16.32;100.00;98600.09;4325832;33;20053;-74
2022/08/01 00:23:04;;;;;;;5.40;3.90;;;;;;;16.45;100.00;98600.41;4280557;33;20611;-74
2022/08/01 00:25:31;;;;;;;5.10;4.32;;;;;;;16.48;100.00;98599.81;4280555;33;20059;-74
2022/08/01 00:27:57;;;;;;;3.50;3.20;;;;;;;16.20;100.00;98560.91;4281091;33;20217;-75
2022/08/01 00:30:23;;;;;;;7.00;3.97;;;;;;;16.02;100.00;98544.38;4283553;33;20042;-73
2022/08/01 00:32:50;;;;;;;5.20;3.75;;;;;;;16.40;100.00;98597.78;4280650;33;20059;-74
2022/08/01 00:35:23;;;;;;;13.20;3.92;;;;;;;16.38;100.00;98594.56;4306377;33;20116;-74
2022/08/01 00:37:49;;;;;;;3.78;3.47;;;;;;;16.45;100.00;98592.25;4310729;33;20029;-73
2022/08/01 00:40:15;;;;;;;14.45;5.37;;;;;;;16.41;100.00;98592.03;4312415;33;20058;-74
2022/08/01 00:42:42;;;;;;;7.65;4.47;;;;;;;16.38;100.00;98591.84;4309901;33;20067;-73
2022/08/01 00:45:09;;;;;;;5.10;4.05;;;;;;;16.42;100.00;98598.28;4325111;33;20071;-74
2022/08/01 00:47:35;;;;;;;7.90;4.68;;;;;;;16.51;100.00;98604.63;4348116;32;20445;-74
2022/08/01 00:50:04;;;;;;;15.48;4.37;;;;;;;15.83;100.00;98509.13;4342270;32;20045;-73
2022/08/01 00:52:33;;;;;;;15.93;4.60;;;;;;;16.62;100.00;98605.28;4344653;32;20036;-73
2022/08/01 00:55:00;;;;;;;6.72;3.70;;;;;;;16.43;100.00;98597.19;4380694;32;20049;-74
2022/08/01 00:57:27;;;;;;;18.58;4.10;;;;;;;16.57;100.00;98603.44;4386980;32;20492;-74
2022/08/01 00:59:53;;;;;;;94.00;5.25;;;;;;;16.18;100.00;98580.22;4400910;32;20043;-73
2022/08/01 01:02:19;;;;;;;41.40;4.07;;;;;;;16.11;100.00;98568.94;4399570;32;20366;-74
2022/08/01 01:04:46;;;;;;;4.75;3.95;;;;;;;16.11;100.00;98571.66;4381967;32;20050;-73
2022/08/01 01:07:26;;;;;;;6.05;4.00;;;;;;;16.19;100.00;98598.13;4385924;32;20172;-74
2022/08/01 01:09:58;;;;;;;8.15;3.65;;;;;;;16.45;100.00;98603.12;4385995;32;20043;-74
2022/08/01 01:12:42;;;;;;;23.40;3.72;;;;;;;16.32;100.00;98597.38;4386120;32;20039;-73
2022/08/01 01:15:31;;;;;;;187.68;8.77;;;;;;;16.36;100.00;98592.13;4386151;32;20042;-74
2022/08/01 01:18:07;;;;;;;38.78;3.45;;;;;;;16.06;100.00;98596.97;4385696;32;20053;-74
2022/08/01 01:20:37;;;;;;;25.67;3.95;;;;;;;16.12;100.00;98603.16;4385410;32;20089;-74
2022/08/01 01:23:26;;;;;;;131.23;5.70;;;;;;;15.80;100.00;98564.81;4385807;32;20353;-74
2022/08/01 01:26:23;;;;;;;35.83;3.47;;;;;;;16.05;100.00;98598.09;4372495;32;20061;-74
2022/08/01 01:29:08;;;;;;;20.83;2.60;;;;;;;16.07;100.00;98584.22;4369401;32;20032;-74
2022/08/01 01:31:45;;;;;;;42.78;4.00;;;;;;;15.67;100.00;98545.72;4369007;32;20043;-74
2022/08/01 01:34:15;;;;;;;5.62;3.62;;;;;;;15.88;100.00;98590.47;4386246;32;20051;-74
2022/08/01 01:36:43;;;;;;;3.90;3.00;;;;;;;15.44;100.00;98586.19;4428141;32;20063;-75
2022/08/01 01:39:11;;;;;;;3.40;3.10;;;;;;;15.19;100.00;98555.63;4430700;32;20064;-74
2022/08/01 01:41:38;;;;;;;13.35;2.87;;;;;;;15.23;100.00;98589.19;4433232;32;20087;-74
2022/08/01 01:44:06;;;;;;;14.50;3.50;;;;;;;15.02;100.00;98558.00;4426872;32;20093;-74
2022/08/01 01:46:33;;;;;;;11.35;4.35;;;;;;;14.78;100.00;98528.22;4433078;32;20106;-75
2022/08/01 01:49:01;;;;;;;22.10;3.80;;;;;;;15.26;100.00;98588.59;4420130;32;20089;-75
2022/08/01 01:51:29;;;;;;;5.15;3.35;;;;;;;15.15;100.00;98557.28;4415875;32;20450;-74
2022/08/01 01:53:56;;;;;;;7.45;4.60;;;;;;;15.35;100.00;98590.66;4417582;32;20332;-74
2022/08/01 01:56:25;;;;;;;5.82;4.07;;;;;;;15.09;100.00;98563.88;4417554;32;20107;-74
2022/08/01 01:58:55;;;;;;;6.15;4.30;;;;;;;15.56;100.00;98597.44;4429256;32;20046;-74
2022/08/01 02:01:25;;;;;;;3.50;3.20;;;;;;;15.65;100.00;98588.63;4431506;32;20066;-74
2022/08/01 02:03:53;;;;;;;3.40;3.20;;;;;;;15.60;100.00;98597.63;4420346;32;20363;-73
2022/08/01 02:06:21;;;;;;;7.45;3.33;;;;;;;14.78;100.00;98501.91;4417462;32;20038;-73
2022/08/01 02:08:47;;;;;;;3.42;3.12;;;;;;;15.23;100.00;98578.31;4420597;32;20072;-73
2022/08/01 02:11:21;;;;;;;4.15;3.75;;;;;;;15.26;100.00;98583.16;4384517;32;20490;-74
2022/08/01 02:14:01;;;;;;;4.82;2.90;;;;;;;15.22;100.00;98587.59;4384835;32;20053;-74
2022/08/01 02:16:31;;;;;;;3.70;3.40;;;;;;;15.29;100.00;98578.28;4383537;32;20038;-74
2022/08/01 02:18:58;;;;;;;3.90;2.85;;;;;;;14.84;100.00;98549.53;4382723;32;20052;-74
2022/08/01 02:21:32;;;;;;;3.90;3.40;;;;;;;14.93;100.00;98589.56;4384769;32;20381;-74
2022/08/01 02:24:14;;;;;;;2.95;2.75;;;;;;;14.94;100.00;98574.91;4384646;32;20027;-74
2022/08/01 02:26:54;;;;;;;4.07;3.37;;;;;;;14.97;100.00;98577.06;4381508;32;20047;-75
2022/08/01 02:29:39;;;;;;;7.03;2.92;;;;;;;14.83;100.00;98575.03;4384240;32;20069;-74
2022/08/01 02:32:11;;;;;;;6.03;3.22;;;;;;;15.00;100.00;98581.91;4384258;32;20040;-73
2022/08/01 02:34:39;;;;;;;3.22;3.03;;;;;;;14.81;100.00;98582.66;4382024;32;20055;-74
2022/08/01 02:37:06;;;;;;;3.85;3.53;;;;;;;14.15;100.00;98495.56;4383850;32;20031;-75
2022/08/01 02:39:35;;;;;;;3.25;2.92;;;;;;;14.70;100.00;98587.38;4384564;32;20075;-74
2022/08/01 02:42:05;;;;;;;6.57;3.35;;;;;;;14.21;100.00;98499.00;4382497;32;20053;-73
2022/08/01 02:44:43;;;;;;;19.67;12.25;;;;;;;14.48;100.00;98552.59;4383769;32;20063;-74
2022/08/01 02:47:10;;;;;;;4.60;3.78;;;;;;;14.67;100.00;98587.12;4383220;32;20060;-74
2022/08/01 02:49:41;;;;;;;3.92;3.60;;;;;;;14.17;100.00;98552.91;4411513;32;20053;-74
2022/08/01 02:52:12;;;;;;;3.53;3.22;;;;;;;14.70;100.00;98581.16;4415667;32;20084;-73
2022/08/01 02:54:40;;;;;;;6.68;4.10;;;;;;;14.50;100.00;98550.44;4414787;32;20980;-75
2022/08/01 02:57:08;;;;;;;4.28;3.87;;;;;;;14.63;100.00;98586.09;4414201;32;20464;-75
2022/08/01 02:59:37;;;;;;;4.07;3.78;;;;;;;14.75;100.00;98591.13;4403417;32;20042;-74
2022/08/01 03:02:11;;;;;;;8.40;4.32;;;;;;;14.87;100.00;98592.34;4410289;32;20056;-75
2022/08/01 03:04:40;;;;;;;7.60;3.67;;;;;;;14.58;100.00;98551.69;4401178;32;21059;-75
2022/08/01 03:07:09;;;;;;;4.20;3.87;;;;;;;14.76;100.00;98571.88;4399497;32;20060;-76
2022/08/01 03:09:38;;;;;;;6.43;3.65;;;;;;;14.28;100.00;98507.59;4399232;32;20104;-75
2022/08/01 03:12:11;;;;;;;36.95;4.78;;;;;;;14.09;100.00;98477.75;4407179;32;20494;-74
2022/08/01 03:14:40;;;;;;;76.70;5.70;;;;;;;14.39;100.00;98518.31;4399050;32;20463;-75
2022/08/01 03:17:08;;;;;;;31.40;6.10;;;;;;;14.92;100.00;98598.78;4399309;32;20354;-75
2022/08/01 03:19:37;;;;;;;67.65;6.10;;;;;;;14.91;100.00;98556.53;4398067;32;20069;-76
2022/08/01 03:22:07;;;;;;;224.50;8.35;;;;;;;15.10;100.00;98594.53;4398538;32;20070;-74
2022/08/01 03:24:36;;;;;;;246.37;11.00;;;;;;;15.23;100.00;98600.03;4397274;32;20068;-75
2022/08/01 03:27:04;;;;;;;285.83;13.73;;;;;;;15.18;100.00;98596.59;4369335;32;20032;-76
2022/08/01 03:29:32;;;;;;;258.45;9.05;;;;;;;14.93;100.00;98551.63;4367527;32;20043;-75
2022/08/01 03:32:01;;;;;;;374.37;17.12;;;;;;;15.04;100.00;98553.09;4369239;32;20199;-76
2022/08/01 03:34:28;;;;;;;267.33;9.15;;;;;;;15.28;100.00;98585.59;4365041;32;20047;-75
2022/08/01 03:37:09;;;;;;;234.85;8.63;;;;;;;14.86;100.00;98550.06;4367930;32;20024;-74
2022/08/01 03:39:44;;;;;;;216.75;8.68;;;;;;;15.24;100.00;98544.69;4368103;32;20368;-74
2022/08/01 03:42:17;;;;;;;201.15;8.70;;;;;;;15.05;100.00;98565.56;4368848;32;20081;-75
2022/08/01 03:44:52;;;;;;;159.98;6.90;;;;;;;15.11;100.00;98556.28;4385403;32;20069;-75
2022/08/01 03:47:24;;;;;;;252.65;7.93;;;;;;;15.15;100.00;98597.97;4391680;32;20057;-75
2022/08/01 03:49:52;;;;;;;167.57;7.30;;;;;;;15.18;100.00;98597.38;4390498;32;20069;-74
2022/08/01 03:52:20;;;;;;;106.97;8.70;;;;;;;14.61;100.00;98531.38;4394647;32;20046;-75
2022/08/01 03:54:49;;;;;;;124.25;9.10;;;;;;;15.05;100.00;98598.91;4397463;32;20027;-75
2022/08/01 03:57:16;;;;;;;105.85;8.88;;;;;;;15.12;100.00;98597.75;4403378;32;20063;-74
2022/08/01 03:59:43;;;;;;;117.43;6.00;;;;;;;14.86;100.00;98560.09;4432011;32;20344;-75
2022/08/01 04:02:13;;;;;;;80.53;5.57;;;;;;;15.23;100.00;98600.03;4429991;32;20056;-74
2022/08/01 04:04:40;;;;;;;85.12;6.72;;;;;;;14.99;100.00;98591.91;4431040;32;20066;-76
2022/08/01 04:07:21;;;;;;;73.15;5.50;;;;;;;15.00;100.00;98568.34;4431726;32;20038;-76
2022/08/01 04:09:48;;;;;;;83.17;6.83;;;;;;;15.17;100.00;98557.81;4429563;32;20046;-74
2022/08/01 04:12:14;;;;;;;142.85;6.80;;;;;;;15.08;100.00;98602.94;4431944;32;20929;-75
2022/08/01 04:14:41;;;;;;;61.47;5.93;;;;;;;14.92;100.00;98577.09;4427597;32;20039;-75
2022/08/01 04:17:07;;;;;;;65.97;5.05;;;;;;;14.62;100.00;98535.72;4425145;32;20042;-73
2022/08/01 04:19:33;;;;;;;58.05;4.95;;;;;;;15.06;100.00;98605.13;4436009;32;20483;-74
2022/08/01 04:22:00;;;;;;;58.10;5.18;;;;;;;15.06;100.00;98621.37;4433180;32;20041;-74
2022/08/01 04:24:29;;;;;;;59.13;5.60;;;;;;;15.13;100.00;98611.00;4434002;32;20042;-74
2022/08/01 04:26:58;;;;;;;41.78;6.10;;;;;;;15.48;100.00;98619.78;4434195;32;20038;-74
2022/08/01 04:29:25;;;;;;;59.35;5.37;;;;;;;15.25;100.00;98587.00;4433461;32;20071;-74
2022/08/01 04:31:55;;;;;;;31.27;4.68;;;;;;;14.96;100.00;98540.19;4425198;32;20058;-74
2022/08/01 04:34:25;;;;;;;66.45;5.75;;;;;;;15.71;100.00;98614.59;4422754;32;20112;-74
2022/08/01 04:36:55;;;;;;;31.73;5.03;;;;;;;15.90;100.00;98620.84;4421892;32;20077;-74
2022/08/01 04:39:27;;;;;;;47.40;5.37;;;;;;;15.75;100.00;98583.06;4433079;32;20030;-75
2022/08/01 04:41:56;;;;;;;61.33;6.55;;;;;;;15.92;100.00;98598.81;4432022;32;20108;-75
2022/08/01 04:44:23;;;;;;;66.50;6.05;;;;;;;15.92;100.00;98610.50;4427994;32;20067;-75
2022/08/01 04:46:50;;;;;;;27.35;5.93;;;;;;;15.74;100.00;98609.38;4432583;32;20105;-76
2022/08/01 04:49:17;;;;;;;15.75;6.35;;;;;;;15.88;100.00;98614.91;4432399;32;20066;-75
2022/08/01 04:51:59;;;;;;;11.90;6.00;;;;;;;15.85;100.00;98604.63;4432560;32;20023;-76
2022/08/01 04:54:27;;;;;;;13.90;5.35;;;;;;;15.61;100.00;98543.06;4433932;32;20068;-75
2022/08/01 04:56:59;;;;;;;11.48;5.78;;;;;;;15.79;100.00;98616.66;4429600;32;20258;-73
2022/08/01 04:59:42;;;;;;;7.40;5.43;;;;;;;15.89;100.00;98619.25;4416801;32;20042;-73
2022/08/01 05:02:11;;;;;;;14.77;6.47;;;;;;;16.12;100.00;98617.53;4424917;32;20041;-75
2022/08/01 05:04:39;;;;;;;6.72;5.62;;;;;;;15.89;100.00;98573.09;4432607;32;20052;-75
2022/08/01 05:07:07;;;;;;;9.68;6.00;;;;;;;16.12;100.00;98616.72;4434149;32;20068;-75
2022/08/01 05:09:34;;;;;;;7.28;5.72;;;;;;;16.40;100.00;98622.22;4432595;32;20398;-77
2022/08/01 05:12:01;;;;;;;6.45;5.22;;;;;;;15.93;100.00;98584.97;4433149;32;20077;-77
2022/08/01 05:14:31;;;;;;;10.00;5.35;;;;;;;16.28;100.00;98618.06;4402531;32;20030;-77
2022/08/01 05:17:08;;;;;;;5.30;4.90;;;;;;;16.40;100.00;98608.63;4354631;32;20074;-76
2022/08/01 05:19:36;;;;;;;6.12;4.45;;;;;;;16.40;100.00;98581.47;4353629;32;20049;-77
2022/08/01 05:22:06;;;;;;;10.35;4.82;;;;;;;16.26;100.00;98609.44;4355752;32;20044;-77
2022/08/01 05:24:34;;;;;;;7.37;4.12;;;;;;;16.68;100.00;98585.84;4359312;32;20065;-76
2022/08/01 05:27:01;;;;;;;6.62;4.97;;;;;;;16.79;100.00;98610.94;4364090;32;20033;-76
2022/08/01 05:29:28;;;;;;;6.00;4.57;;;;;;;16.80;100.00;98617.16;4352911;32;20051;-76
2022/08/01 05:31:54;;;;;;;10.70;4.72;;;;;;;16.71;100.00;98607.00;4357381;32;20078;-76
2022/08/01 05:34:21;;;;;;;15.45;5.45;;;;;;;16.84;100.00;98616.25;4358056;32;20040;-77
2022/08/01 05:36:48;;;;;;;9.38;5.28;;;;;;;16.85;100.00;98607.03;4354175;32;20062;-76
2022/08/01 05:39:14;;;;;;;6.30;4.47;;;;;;;16.88;100.00;98598.28;4345341;32;20108;-77
2022/08/01 05:41:42;;;;;;;3.65;3.35;;;;;;;16.63;100.00;98580.50;4332246;32;20036;-77
2022/08/01 05:44:09;;;;;;;5.43;3.35;;;;;;;16.87;100.00;98574.13;4309657;33;20061;-76
2022/08/01 05:46:36;;;;;;;3.95;3.20;;;;;;;17.26;100.00;98608.13;4323490;33;20040;-77
2022/08/01 05:49:03;;;;;;;8.95;4.40;;;;;;;17.36;100.00;98586.16;4335990;32;20031;-77
2022/08/01 05:51:30;;;;;;;3.95;2.80;;;;;;;17.47;100.00;98569.59;4343747;32;20346;-78
2022/08/01 05:53:57;;;;;;;9.60;3.08;;;;;;;17.14;100.00;98605.13;4344100;32;20061;-77
2022/08/01 05:56:23;;;;;;;4.47;3.20;;;;;;;17.30;100.00;98603.69;4351424;32;20044;-77
2022/08/01 05:58:51;;;;;;;4.10;3.20;;;;;;;17.38;100.00;98610.34;4345970;32;20059;-77
2022/08/01 06:01:24;;;;;;;3.33;2.83;;;;;;;17.17;100.00;98588.22;4344831;32;20083;-77
2022/08/01 06:03:50;;;;;;;5.93;2.75;;;;;;;17.20;100.00;98610.16;4336213;33;20391;-76
2022/08/01 06:06:16;;;;;;;11.43;2.70;;;;;;;16.83;100.00;98581.22;4351538;32;20105;-76
2022/08/01 06:08:43;;;;;;;3.33;2.97;;;;;;;17.10;100.00;98606.84;4308604;33;20036;-75
2022/08/01 06:11:09;;;;;;;3.17;2.35;;;;;;;16.94;100.00;98590.81;4308184;33;20021;-76
2022/08/01 06:13:36;;;;;;;6.65;2.42;;;;;;;17.24;100.00;98615.78;4327873;33;20456;-77
2022/08/01 06:16:03;;;;;;;7.55;2.37;;;;;;;17.15;100.00;98579.53;4331624;33;20477;-77
2022/08/01 06:18:29;;;;;;;2.42;2.22;;;;;;;17.63;100.00;98619.88;4333210;33;20048;-77
2022/08/01 06:20:56;;;;;;;4.57;2.72;;;;;;;17.40;100.00;98575.47;4339953;32;20463;-77
2022/08/01 06:23:22;;;;;;;5.90;2.60;;;;;;;17.89;100.00;98608.44;4374009;32;20392;-78
2022/08/01 06:25:53;;;;;;;8.77;5.03;;;;;;;17.94;100.00;98583.78;4345117;32;20057;-77
2022/08/01 06:28:20;;;;;;;5.72;3.70;;;;;;;18.55;100.00;98616.88;4313339;33;20131;-77
2022/08/01 06:30:46;;;;;;;3.30;2.30;;;;;;;18.44;100.00;98585.53;4299899;33;20036;-77
2022/08/01 06:33:12;;;;;;;7.47;2.50;;;;;;;18.35;100.00;98620.94;4298347;33;20199;-78
2022/08/01 06:35:39;;;;;;;8.77;2.60;;;;;;;18.09;100.00;98586.16;4309347;33;20036;-77
2022/08/01 06:38:05;;;;;;;7.05;2.72;;;;;;;18.34;100.00;98609.22;4263752;33;20042;-78
2022/08/01 06:40:32;;;;;;;3.90;2.00;;;;;;;18.51;100.00;98629.53;4300843;33;20071;-78
2022/08/01 06:42:58;;;;;;;5.10;2.17;;;;;;;18.25;100.00;98622.00;4309593;33;20067;-80
2022/08/01 06:45:26;;;;;;;3.28;2.33;;;;;;;18.60;100.00;98632.28;4309384;33;20412;-76
2022/08/01 06:47:53;;;;;;;5.07;2.35;;;;;;;18.29;100.00;98600.38;4312280;33;20032;-77
2022/08/01 06:50:19;;;;;;;3.12;2.87;;;;;;;18.38;100.00;98592.25;4317924;33;20044;-75
2022/08/01 06:52:45;;;;;;;3.20;2.20;;;;;;;18.34;100.00;98636.47;4319684;33;20060;-75
2022/08/01 06:55:12;;;;;;;2.97;2.25;;;;;;;18.50;100.00;98634.16;4310190;33;20037;-77
2022/08/01 06:57:50;;;;;;;2.35;2.15;;;;;;;18.77;100.00;98631.59;4307788;33;20048;-77
2022/08/01 07:00:18;;;;;;;3.58;2.25;;;;;;;19.01;100.00;98625.78;4346870;32;20028;-77
2022/08/01 07:02:45;;;;;;;3.80;2.50;;;;;;;19.13;100.00;98634.19;4361291;32;20170;-75
2022/08/01 07:05:11;;;;;;;4.60;2.20;;;;;;;19.04;100.00;98592.41;4333200;33;20040;-76
2022/08/01 07:07:38;;;;;;;4.15;2.92;;;;;;;19.29;100.00;98614.63;4337431;33;20062;-79
2022/08/01 07:10:05;;;;;;;5.12;2.75;;;;;;;18.68;100.00;98579.72;4353167;32;20043;-81
2022/08/01 07:12:33;;;;;;;6.28;2.95;;;;;;;19.47;100.00;98627.19;4357779;32;20069;-79
2022/08/01 07:14:59;;;;;;;3.22;2.50;;;;;;;19.17;100.00;98613.31;4357424;32;20058;-80
2022/08/01 07:17:25;;;;;;;6.90;3.53;;;;;;;19.03;100.00;98590.78;4337482;33;20204;-79
2022/08/01 07:19:54;;;;;;;5.30;2.80;;;;;;;19.35;100.00;98580.59;4333201;33;20138;-81
2022/08/01 07:22:21;;;;;;;6.40;2.75;;;;;;;19.44;100.00;98589.59;4337205;33;20056;-80
2022/08/01 07:24:47;;;;;;;12.80;3.62;;;;;;;19.35;100.00;98548.66;4337581;33;20056;-80
2022/08/01 07:27:13;;;;;;;3.62;3.08;;;;;;;19.78;100.00;98593.50;4337915;33;20070;-80
2022/08/01 07:29:40;;;;;;;6.57;2.90;;;;;;;19.87;100.00;98585.31;4337106;33;20427;-79
2022/08/01 07:32:06;;;;;;;4.45;2.53;;;;;;;19.84;100.00;98608.63;4337936;33;20064;-80
2022/08/01 07:34:33;;;;;;;7.00;2.78;;;;;;;19.80;100.00;98607.66;4323497;33;20064;-79
2022/08/01 07:36:59;;;;;;;4.68;2.42;;;;;;;19.75;100.00;98585.94;4373474;32;20081;-80
2022/08/01 07:39:26;;;;;;;2.42;2.25;;;;;;;19.82;100.00;98589.03;4383484;32;20058;-80
2022/08/01 07:41:52;;;;;;;2.58;2.37;;;;;;;20.00;100.00;98600.75;4368819;32;20051;-79
2022/08/01 07:44:19;;;;;;;8.18;2.92;;;;;;;20.04;100.00;98589.97;4388467;32;20031;-79
2022/08/01 07:46:45;;;;;;;2.67;2.47;;;;;;;19.74;100.00;98544.16;4354191;32;20082;-78
2022/08/01 07:49:11;;;;;;;5.10;3.85;;;;;;;20.09;100.00;98581.63;4357714;32;20080;-78
2022/08/01 07:51:38;;;;;;;3.65;1.90;;;;;;;20.42;100.00;98622.88;4370904;32;20058;-79
2022/08/01 07:54:05;;;;;;;2.55;1.95;;;;;;;20.36;100.00;98623.34;4340144;32;20066;-76
2022/08/01 07:56:31;;;;;;;3.62;2.20;;;;;;;20.26;100.00;98614.37;4339790;33;20077;-74
2022/08/01 07:58:58;;;;;;;2.60;2.40;;;;;;;20.11;100.00;98591.06;4331056;33;20041;-75
2022/08/01 08:01:24;;;;;;;6.22;4.55;;;;;;;19.82;100.00;98594.47;4330241;33;20083;-75
2022/08/01 08:03:50;;;;;;;4.10;2.80;;;;;;;20.56;100.00;98628.13;4334209;33;20416;-76
2022/08/01 08:06:17;;;;;;;3.10;2.83;;;;;;;20.57;100.00;98612.56;4340230;33;20028;-75
2022/08/01 08:08:43;;;;;;;2.05;1.77;;;;;;;20.85;100.00;98612.94;4339786;33;20448;-74
2022/08/01 08:11:10;;;;;;;4.47;2.20;;;;;;;20.80;100.00;98615.88;4325404;33;20062;-75
2022/08/01 08:13:36;;;;;;;3.50;2.25;;;;;;;20.97;100.00;98610.34;4324126;33;20058;-74
2022/08/01 08:16:04;;;;;;;3.60;2.45;;;;;;;21.11;100.00;98609.28;4324328;33;20040;-73
2022/08/01 08:18:32;;;;;;;4.53;3.15;;;;;;;21.35;100.00;98612.22;4322143;33;20847;-74
2022/08/01 08:20:58;;;;;;;10.60;2.65;;;;;;;21.22;100.00;98583.13;4298911;33;20033;-72
2022/08/01 08:26:11;;;;;;;8.25;2.92;;;;;;;21.47;100.00;98616.19;4349842;32;20403;-74
2022/08/01 08:28:37;;;;;;;4.18;1.85;;;;;;;20.95;100.00;98584.41;4356417;32;20143;-74
2022/08/01 08:31:04;;;;;;;2.97;2.20;;;;;;;21.15;100.00;98583.66;4356373;32;20351;-74
2022/08/01 08:33:30;;;;;;;8.73;2.00;;;;;;;21.29;100.00;98610.81;4355305;32;20070;-74
2022/08/01 08:35:57;;;;;;;4.82;3.40;;;;;;;21.52;100.00;98607.78;4361669;32;20069;-73
2022/08/01 08:38:25;;;;;;;2.58;2.17;;;;;;;21.72;100.00;98626.19;4368385;32;20941;-73
2022/08/01 08:40:52;;;;;;;7.12;3.20;;;;;;;21.81;100.00;98619.84;4370805;32;20436;-73
2022/08/01 08:43:20;;;;;;;3.12;1.87;;;;;;;21.91;100.00;98597.53;4368882;32;20065;-74
2022/08/01 08:45:46;;;;;;;2.10;1.92;;;;;;;21.52;100.00;98574.94;4338844;33;20057;-73
2022/08/01 08:48:13;;;;;;;2.45;2.08;;;;;;;21.75;100.00;98603.59;4339365;33;20174;-72
2022/08/01 08:50:43;;;;;;;1.60;1.60;;;;;;;21.80;100.00;98604.56;4340894;33;20084;-73
2022/08/01 08:53:10;;;;;;;1.98;1.85;;;;;;;21.80;100.00;98601.81;4340281;33;20024;-74
2022/08/01 08:55:37;;;;;;;3.65;2.95;;;;;;;22.20;100.00;98604.03;4341179;33;20058;-73
2022/08/01 08:58:05;;;;;;;3.65;1.60;;;;;;;22.38;100.00;98613.69;4338700;33;20074;-72
2022/08/01 09:00:34;;;;;;;5.65;1.80;;;;;;;22.54;100.00;98629.53;4341043;33;20076;-74
2022/08/01 09:03:00;;;;;;;1.52;1.52;;;;;;;22.82;100.00;98614.03;4327025;33;20300;-73
2022/08/01 09:05:27;;;;;;;12.70;2.30;;;;;;;23.12;100.00;98626.75;4341244;32;20378;-72
2022/08/01 09:07:53;;;;;;;5.03;1.42;;;;;;;22.67;100.00;98633.88;4360353;32;20069;-72
2022/08/01 09:10:20;;;;;;;1.87;1.77;;;;;;;23.25;100.00;98630.31;4381458;32;20053;-73
2022/08/01 09:13:12;;;;;;;5.05;1.85;;;;;;;22.87;100.00;98609.47;4385277;32;20081;-74
2022/08/01 09:15:53;;;;;;;1.27;1.27;;;;;;;23.18;100.00;98634.47;4383471;32;20039;-73
2022/08/01 09:18:28;;;;;;;3.57;1.83;;;;;;;23.13;100.00;98642.09;4385875;32;20365;-73
2022/08/01 09:21:08;;;;;;;3.53;1.30;;;;;;;23.04;100.00;98603.75;4384698;32;20078;-73
2022/08/01 09:23:39;;;;;;;1.52;1.42;;;;;;;23.14;100.00;98636.28;4394057;32;20090;-73
2022/08/01 09:26:06;;;;;;;2.10;1.48;;;;;;;23.29;100.00;98642.22;4400485;32;20199;-73
2022/08/01 09:28:33;;;;;;;2.35;1.70;;;;;;;23.54;100.00;98613.56;4400447;32;20053;-73
2022/08/01 09:31:06;;;;;;;3.22;1.67;;;;;;;23.52;100.00;98613.13;4382940;32;20031;-73
2022/08/01 09:33:54;;;;;;;2.00;1.80;;;;;;;23.56;100.00;98641.50;4398849;32;20073;-73
2022/08/01 09:36:22;;;;;;;11.27;5.20;;;;;;;23.70;100.00;98645.84;4399794;32;20104;-73
2022/08/01 09:38:50;;;;;;;1.92;1.50;;;;;;;23.79;100.00;98604.47;4399840;32;20069;-73
2022/08/01 09:41:17;;;;;;;2.03;1.92;;;;;;;23.87;100.00;98640.09;4400266;32;20031;-72
2022/08/01 09:43:50;;;;;;;4.32;1.62;;;;;;;24.11;100.00;98643.94;4388411;32;20042;-75
2022/08/01 09:46:16;;;;;;;4.28;3.08;;;;;;;23.87;100.00;98644.78;4383570;32;20080;-72
2022/08/01 09:49:04;;;;;;;2.67;1.50;;;;;;;23.95;100.00;98643.87;4382667;32;20031;-75
2022/08/01 09:51:34;;;;;;;8.45;2.15;;;;;;;23.99;100.00;98638.47;4385245;32;20039;-75
2022/08/01 09:54:04;;;;;;;4.22;3.05;;;;;;;23.93;100.00;98619.47;4383675;32;20019;-74
2022/08/01 09:56:39;;;;;;;3.50;1.58;;;;;;;23.45;100.00;98612.91;4384859;32;20055;-74
2022/08/01 09:59:06;;;;;;;2.60;1.45;;;;;;;23.97;100.00;98638.03;4385158;32;20035;-74
2022/08/01 10:01:49;;;;;;;1.35;1.35;;;;;;;24.55;100.00;98646.69;4389372;32;20042;-77
2022/08/01 10:04:19;;;;;;;1.55;1.45;;;;;;;24.81;100.00;98601.38;4397871;32;20797;-76
2022/08/01 10:06:52;;;;;;;2.62;1.62;;;;;;;24.65;100.00;98653.66;4398991;32;20053;-76
2022/08/01 10:09:33;;;;;;;3.85;1.10;;;;;;;24.48;100.00;98597.00;4383062;32;20051;-76
2022/08/01 10:12:01;;;;;;;3.55;1.60;;;;;;;24.52;100.00;98630.88;4369745;32;20032;-75
2022/08/01 10:14:29;;;;;;;2.80;1.30;;;;;;;24.17;100.00;98631.50;4369656;32;20056;-75
2022/08/01 10:16:57;;;;;;;9.07;1.75;;;;;;;24.39;100.00;98648.62;4369239;32;20031;-75
2022/08/01 10:19:26;;;;;;;1.55;1.50;;;;;;;24.67;100.00;98621.09;4352681;32;20527;-75
2022/08/01 10:21:55;;;;;;;1.92;1.50;;;;;;;25.09;100.00;98653.59;4351898;32;20036;-74
2022/08/01 10:24:22;;;;;;;2.33;1.40;;;;;;;25.19;100.00;98646.75;4357496;32;20517;-74
2022/08/01 10:26:51;;;;;;;7.32;1.75;;;;;;;25.25;100.00;98650.84;4360493;32;20059;-74
2022/08/01 10:29:20;;;;;;;1.52;1.23;;;;;;;24.95;100.00;98643.03;4361537;32;20036;-74
2022/08/01 10:31:46;;;;;;;18.20;1.87;;;;;;;24.92;100.00;98638.25;4367686;32;20459;-77
2022/08/01 10:34:18;;;;;;;10.13;1.83;;;;;;;24.89;100.00;98636.22;4367420;32;20069;-75
2022/08/01 10:36:46;;;;;;;2.92;1.48;;;;;;;24.96;100.00;98621.81;4369447;32;20536;-74
2022/08/01 10:39:12;;;;;;;5.70;1.12;;;;;;;25.35;100.00;98630.25;4367927;32;20452;-75
2022/08/01 10:41:39;;;;;;;20.90;3.47;;;;;;;25.07;100.00;98633.09;4393156;32;20049;-75
2022/08/01 10:44:09;;;;;;;3.08;1.98;;;;;;;25.23;100.00;98609.09;4389829;32;20456;-74
2022/08/01 10:46:38;;;;;;;2.40;1.60;;;;;;;25.91;100.00;98632.69;4395526;32;20433;-75
2022/08/01 10:49:11;;;;;;;3.15;1.87;;;;;;;25.35;100.00;98621.97;4390709;32;20069;-74
2022/08/01 10:51:40;;;;;;;5.90;1.60;;;;;;;25.24;100.00;98621.72;4417737;32;20064;-76
2022/08/01 10:54:08;;;;;;;1.83;1.23;;;;;;;25.36;100.00;98598.78;4390781;32;20039;-74
2022/08/01 10:56:48;;;;;;;3.45;1.20;;;;;;;24.77;100.00;98604.03;4399834;32;20023;-76
2022/08/01 10:59:22;;;;;;;2.40;1.60;;;;;;;25.27;100.00;98626.47;4397112;32;20407;-76
2022/08/01 11:02:04;;;;;;;1.92;1.80;;;;;;;25.89;100.00;98618.44;4397013;32;20038;-76
2022/08/01 11:04:54;;;;;;;1.52;1.52;;;;;;;26.42;100.00;98606.09;4397472;32;20096;-75
2022/08/01 11:07:23;;;;;;;1.58;1.48;;;;;;;26.21;100.00;98628.56;4396895;32;20052;-76
2022/08/01 11:10:03;;;;;;;2.00;1.90;;;;;;;25.48;100.00;98620.72;4386519;32;20964;-73
2022/08/01 11:12:40;;;;;;;4.10;1.75;;;;;;;25.76;100.00;98602.41;4393062;32;20459;-75
2022/08/01 11:15:10;;;;;;;2.20;1.75;;;;;;;25.82;100.00;98623.03;4395856;32;20053;-74
2022/08/01 11:17:38;;;;;;;6.93;1.73;;;;;;;26.01;100.00;98625.81;4399157;32;20050;-76
2022/08/01 11:20:19;;;;;;;5.28;2.28;;;;;;;26.44;100.00;98620.34;4397919;32;20096;-75
2022/08/01 11:23:01;;;;;;;5.50;1.65;;;;;;;25.99;100.00;98603.31;4400350;32;20043;-76
2022/08/01 11:25:48;;;;;;;2.50;1.50;;;;;;;25.72;100.00;98618.84;4403622;32;20068;-75
2022/08/01 11:28:17;;;;;;;3.50;1.85;;;;;;;26.10;100.00;98634.69;4404664;32;20031;-74
2022/08/01 11:30:46;;;;;;;1.73;1.62;;;;;;;25.98;100.00;98609.97;4405954;32;20155;-75
2022/08/01 11:33:14;;;;;;;9.77;1.52;;;;;;;25.50;100.00;98595.56;4391761;32;20072;-75
2022/08/01 11:36:20;;;;;;;1.62;1.52;;;;;;;26.19;100.00;98637.19;4391926;32;20044;-75